Dorothy Ann — WDE8761 — position and weather

sailwx.info

Track history (hours):
 
Tides and Currents Weather Stations Pressure Air Temp Water Temp Dewpoint Dewpoint Depression Visibility Wind Speed Wind Dir Waves Ship Positions

Dorothy Ann

Owner: THE INTERLAKE STEAMSHIP COMPANY, Middleburg Heights, OH. More information available from US FCC via Universal Licensing System and Coast Guard Vessel Documentation Center.

Last reported at 2016-Dec-06 15:00 UTC. Time now 2016-Dec-06 16:05 UTC.
Position N 41°36' W 082°42'.

Length 215 m; draft 5.9 m.

Type: Cargo ship. MMSI: 367409260.

Wind from 120 at 20 knots

Barometer 1009.0 mb
Air temperature 4.0 ° C
Water temperature 16.8 ° C

Date/timePositionNaut miles runAvg speedWind from/ knotsBaromVisibWave heightAir tempDewpointWater temp
2016-Dec-06 15:00N 41°36' W 082°42'0 0.0 120 / 201009.0 4.0 16.8
2016-Dec-06 14:00N 41°36' W 082°42'0 0.0 120 / 211009.6 4.1 16.5
2016-Dec-06 13:00N 41°36' W 082°42'0 0.0 100 / 251010.7 3.9 16.6
2016-Dec-06 12:00N 41°36' W 082°42'0 0.0 090 / 261011.7 4.4 16.5
2016-Dec-06 11:00N 41°36' W 082°42'0 0.0 090 / 261012.7 3.9 16.5
2016-Dec-06 10:00N 41°36' W 082°42'0 0.0 100 / 221014.0 3.3 16.4
2016-Dec-06 09:00N 41°36' W 082°42'0 0.0 110 / 221015.1 3.5 16.5
2016-Dec-06 08:00N 41°36' W 082°42'7 7.5 110 / 221016.1 3.6 16.5
2016-Dec-06 07:00N 41°30' W 082°36'9 9.0 100 / 181016.8 3.4 17.2
2016-Dec-06 06:00N 41°30' W 082°24'9 9.0 110 / 141017.8 7.3 17.3
2016-Dec-06 05:00N 41°30' W 082°12'0 0.0 110 / 81018.1 1.9 16.9
2016-Dec-06 04:00N 41°30' W 082°12'0 0.0 080 / 31018.5 0.4 17.0
2016-Dec-06 03:00N 41°30' W 082°12'0 0.0 110 / 41018.8 0.4 17.3
2016-Dec-06 02:00N 41°30' W 082°12'0 0.0 110 / 11019.5 0.6 17.0
2016-Dec-06 01:00N 41°30' W 082°12'0 0.0 140 / 21019.5 0.5 17.2
2016-Dec-06 00:00N 41°30' W 082°12'0 0.0 160 / 31019.8 2.0 17.2
2016-Dec-05 23:00N 41°30' W 082°12'0 0.0 260 / 31019.8 3.0 17.0
2016-Dec-05 22:00N 41°30' W 082°12'0 0.0 230 / 41020.1 3.3 17.3
2016-Dec-05 21:00N 41°30' W 082°12'0 0.0 240 / 51019.8 3.6 17.3
2016-Dec-05 20:00N 41°30' W 082°12'0 0.0 210 / 61019.1 3.5 17.3
2016-Dec-05 19:00N 41°30' W 082°12'0 0.0 230 / 71019.5 3.5 17.1
2016-Dec-05 18:00N 41°30' W 082°12'0 0.0 220 / 101019.1 3.3 17.0
2016-Dec-05 17:00N 41°30' W 082°12'0 0.0 220 / 101019.1 3.2 17.3
2016-Dec-05 16:00N 41°30' W 082°12'0 0.0 230 / 81019.5 3.0 17.1
2016-Dec-05 15:00N 41°30' W 082°12'0 0.0 250 / 41019.1 2.9 17.0
2016-Dec-05 14:00N 41°30' W 082°12'0 0.0 250 / 91018.8 2.7 17.0
2016-Dec-05 13:00N 41°30' W 082°12'0 0.0 250 / 71018.1 2.8 17.0
2016-Dec-05 12:00N 41°30' W 082°12'4 4.5 260 / 101017.1 3.0 16.9
2016-Dec-05 11:00N 41°30' W 082°18'9 9.0 290 / 201016.1 3.3 17.6
2016-Dec-05 10:00N 41°30' W 082°30'9 9.0 250 / 181015.4 3.0 17.2
2016-Dec-05 09:00N 41°30' W 082°42'0 0.0 280 / 241014.7 2.6 16.2
2016-Dec-05 08:00N 41°30' W 082°42'0 0.0 270 / 181013.4 2.5 16.1
2016-Dec-05 07:00N 41°30' W 082°42'0 0.0 270 / 171012.4 2.8 16.0
2016-Dec-05 06:00N 41°30' W 082°42'0 0.0 240 / 161011.0 2.8 16.2
2016-Dec-05 05:00N 41°30' W 082°42'0 0.0 220 / 131010.7 2.1 16.1
2016-Dec-05 04:00N 41°30' W 082°42'0 0.0 210 / 91010.3 1.7 16.2
2016-Dec-05 03:00N 41°30' W 082°42'0 0.0 170 / 91011.0 1.3 16.5
2016-Dec-05 02:00N 41°30' W 082°42'0 0.0 160 / 101011.0 1.0 16.5
2016-Dec-05 01:00N 41°30' W 082°42'0 0.0 140 / 111012.7 2.1 16.4
2016-Dec-05 00:00N 41°30' W 082°42'0 0.0 140 / 161013.4 3.0 16.6
2016-Dec-04 23:00N 41°30' W 082°42'0 0.0 120 / 121015.4 4.6 16.3
2016-Dec-04 22:00N 41°30' W 082°42'0 0.0 130 / 111016.4 4.3 16.4
2016-Dec-04 21:00N 41°30' W 082°42'0 0.0 120 / 121016.8 4.1 16.5
2016-Dec-04 20:00N 41°30' W 082°42'0 0.0 120 / 111017.4 4.0 16.5
2016-Dec-04 19:00N 41°30' W 082°42'0 0.0 110 / 111018.8 3.6 16.7
2016-Dec-04 18:00N 41°30' W 082°42'0 0.0 130 / 81020.5 3.6 16.3
2016-Dec-04 17:00N 41°30' W 082°42'7 7.5 150 / 71021.8 3.0 16.2
2016-Dec-04 16:00N 41°36' W 082°36'7 7.5 180 / 101023.2 3.1 16.6
2016-Dec-04 15:00N 41°42' W 082°30'32 8.1 190 / 101023.9 3.1 16.9
2016-Dec-04 11:00N 42°00' W 083°06'6 6.0 200 / 141024.2 3.0 16.7
2016-Dec-04 10:00N 42°06' W 083°06'1212.0 250 / 71025.0 2.6 16.8
2016-Dec-04 09:00N 42°18' W 083°06'0 0.0 230 / 71025.0 2.6 16.6
2016-Dec-04 08:00N 42°18' W 083°06'0 0.0 250 / 41025.3 3.1 16.7
2016-Dec-04 07:00N 42°18' W 083°06'0 0.0 230 / 41025.3 2.6 20.4
2016-Dec-04 06:00N 42°18' W 083°06'0 0.0 240 / 41025.7 2.4 20.1
2016-Dec-04 05:00N 42°18' W 083°06'0 0.0 210 / 41026.0 2.5 19.9
2016-Dec-04 04:00N 42°18' W 083°06'0 0.0 250 / 51026.4 2.6 20.6
2016-Dec-04 03:00N 42°18' W 083°06'0 0.0 250 / 41026.0 3.8 19.5
2016-Dec-04 02:00N 42°18' W 083°06'1110.7 260 / 71026.0 3.4 16.3
2016-Dec-04 01:00N 42°24' W 082°54'1110.7 280 / 101025.7 3.3 16.6
2016-Dec-04 00:00N 42°30' W 082°42'7 7.5 270 / 121025.7 3.4 17.0
2016-Dec-03 23:00N 42°36' W 082°36'7 7.4 280 / 81026.0 3.8 17.4
2016-Dec-03 22:00N 42°42' W 082°30'1212.0 280 / 81025.9 3.7 17.6
2016-Dec-03 21:00N 42°54' W 082°30'7 7.4 270 / 91025.5 3.8 17.3
2016-Dec-03 20:00N 43°00' W 082°24'1212.0 270 / 171025.5 3.9 17.7
2016-Dec-03 19:00N 43°12' W 082°24'6 6.0 290 / 171024.5 3.8 17.8
2016-Dec-03 18:00N 43°18' W 082°24'1312.8 280 / 161023.8 3.7 18.2
2016-Dec-03 17:00N 43°30' W 082°30'6 6.0 280 / 171023.8 3.5 17.9
2016-Dec-03 16:00N 43°36' W 082°30'1212.0 280 / 181024.8 3.6 18.1
2016-Dec-03 15:00N 43°48' W 082°30'6 6.0 280 / 171024.5 3.9 17.6
2016-Dec-03 14:00N 43°54' W 082°30'1110.5 280 / 141023.8 3.9 17.4
2016-Dec-03 13:00N 44°00' W 082°42'7 7.4 310 / 151023.8 9.3 17.4
2016-Dec-03 12:00N 44°06' W 082°48'1010.5 300 / 141023.5 9.7 17.2
2016-Dec-03 11:00N 44°12' W 083°00'1010.5 310 / 151023.5 7.8 17.9
2016-Dec-03 10:00N 44°18' W 083°12'6 6.0 320 / 131023.2 8.6 17.7
2016-Dec-03 09:00N 44°24' W 083°12'1212.0 300 / 161022.8 3.8 17.2
2016-Dec-03 08:00N 44°36' W 083°12'6 6.0 300 / 161022.5 4.0 17.5
2016-Dec-03 07:00N 44°42' W 083°12'7 7.4 310 / 171021.8 3.4 18.0
2016-Dec-03 06:00N 44°48' W 083°06'1212.0 310 / 221021.5 3.4 17.4
2016-Dec-03 05:00N 45°00' W 083°06'7 7.3 310 / 201020.8 3.5 16.6
2016-Dec-03 04:00N 45°06' W 083°12'1312.7 290 / 221020.8 4.3 16.9
2016-Dec-03 03:00N 45°18' W 083°18'4 4.2 320 / 261020.4 4.0 16.7
2016-Dec-03 02:00N 45°18' W 083°24'0 0.0 300 / 201019.8 3.8 16.2
2016-Dec-03 01:00N 45°18' W 083°24'0 0.0 310 / 191019.1 3.7 16.7
2016-Dec-03 00:00N 45°18' W 083°24'0 0.0 310 / 221018.4 3.9 16.8
2016-Dec-02 23:00N 45°18' W 083°24'0 0.0 320 / 241017.7 4.1 16.7
2016-Dec-02 22:00N 45°18' W 083°24'0 0.0 310 / 231017.1 4.0 17.1
2016-Dec-02 21:00N 45°18' W 083°24'0 0.0 320 / 251016.4 3.9 17.2
2016-Dec-02 20:00N 45°18' W 083°24'0 0.0 300 / 191015.7 3.9 17.3
2016-Dec-02 19:00N 45°18' W 083°24'0 0.0 310 / 191014.7 3.7 17.4
2016-Dec-02 18:00N 45°18' W 083°24'0 0.0 300 / 211014.0 3.3 17.1
2016-Dec-02 17:00N 45°18' W 083°24'0 0.0 280 / 151013.7 2.1 17.0
2016-Dec-02 16:00N 45°18' W 083°24'0 0.0 290 / 171013.3 2.2 17.0
2016-Dec-02 15:00N 45°18' W 083°24'0 0.0 280 / 151012.7 1.4 16.6
2016-Dec-02 14:00N 45°18' W 083°24'0 0.0 360 / 31012.3 1.2 16.9
2016-Dec-02 13:00N 45°18' W 083°24'0 0.0 290 / 181011.6 1.6 16.4
2016-Dec-02 12:00N 45°18' W 083°24'0 0.0 280 / 171011.0 1.7 16.4
2016-Dec-02 11:00N 45°18' W 083°24'0 0.0 290 / 191011.0 1.9 16.5
2016-Dec-02 10:00N 45°18' W 083°24'0 0.0 290 / 171010.3 1.9 17.1
2016-Dec-02 09:00N 45°18' W 083°24'0 0.0 290 / 151009.6 1.8 17.0
2016-Dec-02 08:00N 45°18' W 083°24'4 4.2 280 / 161009.6 1.7 16.5
2016-Dec-02 07:00N 45°18' W 083°18'7 7.3 300 / 271008.3 2.2 16.2
2016-Dec-02 06:00N 45°12' W 083°12'1312.7 290 / 281007.6 2.6 16.7
2016-Dec-02 05:00N 45°00' W 083°06'6 6.0 290 / 261007.2 3.3 17.3
2016-Dec-02 04:00N 44°54' W 083°06'1212.0 290 / 301006.9 3.7 17.4
2016-Dec-02 03:00N 44°42' W 083°06'7 7.4 300 / 221006.9 4.4 17.8
2016-Dec-02 02:00N 44°36' W 083°12'1212.0 290 / 241006.9 4.4 17.7
2016-Dec-02 01:00N 44°24' W 083°12'7 7.4 290 / 241006.2 4.6 17.2
2016-Dec-02 00:00N 44°18' W 083°18'7 7.4 280 / 221006.6 4.5 17.5
2016-Dec-01 23:00N 44°12' W 083°24'1312.8 280 / 201006.2 4.9 17.6
2016-Dec-01 22:00N 44°00' W 083°30'7 7.4 270 / 211005.5 5.8 16.8
2016-Dec-01 21:00N 43°54' W 083°36'7 7.4 250 / 221005.5 5.8 15.9
2016-Dec-01 20:00N 43°48' W 083°42'1312.8 250 / 201005.5 5.7 15.9
2016-Dec-01 19:00N 43°36' W 083°48'0 0.0 250 / 121005.5 5.5 15.8
2016-Dec-01 18:00N 43°36' W 083°48'0 0.0 250 / 151005.2 4.8 15.6
2016-Dec-01 17:00N 43°36' W 083°48'0 0.0 240 / 131004.9 4.2 15.3
2016-Dec-01 16:00N 43°36' W 083°48'0 0.0 250 / 121004.9 3.7 15.5
2016-Dec-01 15:00N 43°36' W 083°48'0 0.0 240 / 151004.5 3.0 15.5
2016-Dec-01 14:00N 43°36' W 083°48'0 0.0 230 / 141004.2 2.9 15.6
2016-Dec-01 13:00N 43°36' W 083°48'0 0.0 230 / 111003.9 2.7 15.4
2016-Dec-01 12:00N 43°36' W 083°48'0 0.0 220 / 171003.9 2.7 15.5
2016-Dec-01 11:00N 43°36' W 083°48'1212.0 230 / 141002.8 2.6 15.3
2016-Dec-01 10:00N 43°48' W 083°48'7 7.4 240 / 241002.2 3.6 15.4
2016-Dec-01 09:00N 43°54' W 083°42'7 7.4 220 / 351001.8 4.4 15.5
2016-Dec-01 08:00N 44°00' W 083°36'7 7.4 250 / 251001.8 4.5 14.7
2016-Dec-01 07:00N 44°06' W 083°30'7 7.4 250 / 181001.1 4.4 17.0
2016-Dec-01 06:00N 44°12' W 083°24'1010.5 260 / 221000.5 5.7 18.0
2016-Dec-01 05:00N 44°18' W 083°12'6 6.0 270 / 24999.4 5.2 18.1
2016-Dec-01 04:00N 44°24' W 083°12'1212.0 260 / 23998.8 6.1 17.5
2016-Dec-01 03:00N 44°36' W 083°12'7 7.4 300 / 16998.4 6.6 18.4
2016-Dec-01 02:00N 44°42' W 083°06'1212.0 310 / 25998.1 6.9 18.4
2016-Dec-01 01:00N 44°54' W 083°06'6 6.0 280 / 18997.8 8.5 18.2
2016-Dec-01 00:00N 45°00' W 083°06'1312.7 180 / 10998.1 8.1 18.0
2016-Nov-30 23:00N 45°12' W 083°12'7 7.3 190 / 11998.1 8.2 18.3
2016-Nov-30 22:00N 45°18' W 083°18'7 7.3 080 / 2998.4 9.0 17.8
2016-Nov-30 21:00N 45°24' W 083°24'8 8.4 060 / 7998.4 7.7 18.2
2016-Nov-30 20:00N 45°24' W 083°36'8 8.4 090 / 4998.4 8.5 18.1
2016-Nov-30 19:00N 45°24' W 083°48'0 0.0 280 / 4998.8 10.4 17.7
2016-Nov-30 18:00N 45°24' W 083°48'0 0.0 060 / 2999.1 9.7 17.5
2016-Nov-30 17:00N 45°24' W 083°48'0 0.0 140 / 4999.8 10.4 17.8
2016-Nov-30 16:00N 45°24' W 083°48'0 0.0 180 / 41000.8 10.3 17.9
2016-Nov-30 15:00N 45°24' W 083°48'0 0.0 160 / 101001.5 9.1 17.6
2016-Nov-30 14:00N 45°24' W 083°48'0 0.0 180 / 101001.8 7.9 17.5
2016-Nov-30 13:00N 45°24' W 083°48'0 0.0 180 / 61002.2 7.9 17.4
2016-Nov-30 12:00N 45°24' W 083°48'0 0.0 190 / 61002.2 7.2 17.2
2016-Nov-30 11:00N 45°24' W 083°48'0 0.0 170 / 61002.2 7.2 17.2
2016-Nov-30 10:00N 45°24' W 083°48'0 0.0 170 / 71002.8 6.9 17.3
2016-Nov-30 09:00N 45°24' W 083°48'0 0.0 170 / 81002.8 6.0 17.1
2016-Nov-30 08:00N 45°24' W 083°48'0 0.0 180 / 101003.2 6.0 17.1
2016-Nov-30 07:00N 45°24' W 083°48'8 8.4 180 / 101003.2 6.3 16.8
2016-Nov-30 06:00N 45°24' W 083°36'1010.3 180 / 121003.2 7.3 16.9
2016-Nov-30 05:00N 45°18' W 083°24'1010.4 180 / 141003.9 8.3 16.8
2016-Nov-30 04:00N 45°12' W 083°12'7 7.3 190 / 161004.2 8.7 16.5
2016-Nov-30 03:00N 45°06' W 083°06'1312.7 180 / 191004.5 10.3 17.3
2016-Nov-30 02:00N 44°54' W 083°00'6 6.0 180 / 181004.9 12.7 16.8
2016-Nov-30 01:00N 44°48' W 083°00'1312.7 170 / 171004.9 12.4 16.8
2016-Nov-30 00:00N 44°36' W 082°54'7 7.4 160 / 151004.9 10.3 17.5
2016-Nov-29 23:00N 44°30' W 082°48'3110.4 160 / 141004.5 10.5 17.3
2016-Nov-29 20:00N 44°00' W 082°36'1312.8 180 / 131003.2 11.3 17.4
2016-Nov-29 19:00N 43°48' W 082°30'6 6.0 200 / 131002.8 11.5 17.8
2016-Nov-29 18:00N 43°42' W 082°30'1212.0 210 / 181002.8 11.7 18.0
2016-Nov-29 17:00N 43°30' W 082°30'1212.0 220 / 201003.2 12.1 18.3
2016-Nov-29 16:00N 43°18' W 082°30'7 7.4 230 / 211002.8 11.4 18.7
2016-Nov-29 15:00N 43°12' W 082°24'1212.0 220 / 211002.8 10.8 19.0
2016-Nov-29 14:00N 43°00' W 082°24'7 7.4 200 / 141002.8 10.7 18.1
2016-Nov-29 13:00N 42°54' W 082°30'0 0.0 200 / 171002.2 10.8 18.7
2016-Nov-29 12:00N 42°54' W 082°30'0 0.0 200 / 171000.8 10.9 18.7
2016-Nov-29 11:00N 42°54' W 082°30'0 0.0 200 / 15999.4 10.9 19.0
2016-Nov-29 10:00N 42°54' W 082°30'0 0.0 210 / 17998.8 10.6 18.8
2016-Nov-29 09:00N 42°54' W 082°30'0 0.0 200 / 26998.4 10.2 18.8
2016-Nov-29 08:00N 42°54' W 082°30'0 0.0 270 / 22998.1 8.8 19.0
2016-Nov-29 07:00N 42°54' W 082°30'0 0.0 180 / 21997.1 9.4 19.6
2016-Nov-29 06:00N 42°54' W 082°30'0 0.0 140 / 22997.8 7.7 20.2
2016-Nov-29 05:00N 42°54' W 082°30'0 0.0 160 / 22998.4 8.0 19.6
2016-Nov-29 04:00N 42°54' W 082°30'0 0.0 140 / 22999.8 7.9 19.9
2016-Nov-29 03:00N 42°54' W 082°30'0 0.0 140 / 221001.5 8.5 20.2
2016-Nov-29 02:00N 42°54' W 082°30'0 0.0 150 / 221002.8 8.8 19.9
2016-Nov-29 01:00N 42°54' W 082°30'6 6.0 140 / 231004.2 8.8 20.2
2016-Nov-29 00:00N 42°48' W 082°30'6 6.0 140 / 141005.5 8.2 20.1
2016-Nov-28 23:00N 42°42' W 082°30'0 0.0 130 / 141006.9 7.7 19.9
2016-Nov-28 22:00N 42°42' W 082°30'0 0.0 140 / 131007.2 7.4 20.1
2016-Nov-28 21:00N 42°42' W 082°30'0 0.0 160 / 151007.9 7.0 19.9
2016-Nov-28 20:00N 42°42' W 082°30'0 0.0 150 / 151007.9 8.4 20.5
2016-Nov-28 19:00N 42°42' W 082°30'7 7.4 150 / 121008.6 8.7 19.7
2016-Nov-28 18:00N 42°36' W 082°36'7 7.5 150 / 161009.6 8.1 19.4
2016-Nov-28 17:00N 42°30' W 082°42'7 7.5 160 / 181009.4 7.6 18.9
2016-Nov-28 16:00N 42°24' W 082°48'4 4.4 180 / 161011.1 7.7 18.5
2016-Nov-28 15:00N 42°24' W 082°54'1110.7 180 / 141011.1 7.9 18.3
2016-Nov-28 14:00N 42°18' W 083°06'0 0.0 180 / 101012.1 6.8 17.4
2016-Nov-28 13:00N 42°18' W 083°06'0 0.0 180 / 71012.5 6.2 17.0
2016-Nov-28 12:00N 42°18' W 083°06'0 0.0 140 / 51012.1 5.6 17.3
2016-Nov-28 11:00N 42°18' W 083°06'0 0.0 150 / 61012.5 4.9 17.1
2016-Nov-28 10:00N 42°18' W 083°06'0 0.0 150 / 61012.8 3.9 16.7
2016-Nov-28 09:00N 42°18' W 083°06'0 0.0 150 / 51013.5 3.7 17.7
2016-Nov-28 08:00N 42°18' W 083°06'6 6.0 150 / 51013.8 3.7 18.1
2016-Nov-28 07:00N 42°12' W 083°06'6 6.0 150 / 101014.5 4.4 18.1
2016-Nov-28 06:00N 42°06' W 083°06'6 6.0 160 / 81015.5 6.8 18.6
2016-Nov-28 05:00N 42°00' W 083°06'7 7.5 180 / 151015.7 10.1 18.3
2016-Nov-28 04:00N 41°54' W 083°00'9 8.9 180 / 151015.7 6.1 18.3
2016-Nov-28 03:00N 41°54' W 082°48'4 4.5 170 / 121017.1 6.6 19.9
2016-Nov-28 02:00N 41°54' W 082°42'1110.8 160 / 111017.8 6.9 19.5
2016-Nov-28 01:00N 41°48' W 082°30'7 7.5 170 / 91018.5 7.6 19.6
2016-Nov-28 00:00N 41°42' W 082°36'7 7.5 170 / 111018.5 7.3 19.6
2016-Nov-27 23:00N 41°36' W 082°42'6 6.0 190 / 121018.8 7.0 19.5
2016-Nov-27 22:00N 41°30' W 082°42'0 0.0 180 / 51019.1 7.2 19.1
2016-Nov-27 21:00N 41°30' W 082°42'0 0.0 190 / 81019.1 7.9 19.2
2016-Nov-27 20:00N 41°30' W 082°42'0 0.0 190 / 121019.5 8.2 19.2
2016-Nov-27 19:00N 41°30' W 082°42'0 0.0 220 / 91019.8 8.2 19.1
2016-Nov-27 18:00N 41°30' W 082°42'0 0.0 210 / 131020.8 6.9 19.2
2016-Nov-27 17:00N 41°30' W 082°42'0 0.0 210 / 111022.2 6.7 18.9
2016-Nov-27 16:00N 41°30' W 082°42'0 0.0 210 / 141022.9 4.9 19.0
2016-Nov-27 15:00N 41°30' W 082°42'0 0.0 200 / 101023.2 4.0 18.6
2016-Nov-27 14:00N 41°30' W 082°42'0 0.0 210 / 101023.2 2.5 18.6
2016-Nov-27 13:00N 41°30' W 082°42'0 0.0 200 / 121023.2 1.7 18.6
2016-Nov-27 12:00N 41°30' W 082°42'0 0.0 200 / 111022.5 1.6 18.7
2016-Nov-27 11:00N 41°30' W 082°42'0 0.0 200 / 101022.9 1.9 18.7
2016-Nov-27 10:00N 41°30' W 082°42'0 0.0 200 / 91023.2 2.4 18.8
2016-Nov-27 09:00N 41°30' W 082°42'6 6.0 210 / 101023.5 3.5 19.3
2016-Nov-27 08:00N 41°36' W 082°42'0 0.0 230 / 121024.2 3.3 19.5
2016-Nov-27 07:00N 41°36' W 082°42'0 0.0 230 / 121024.2 3.2 19.4
2016-Nov-27 06:00N 41°36' W 082°42'0 0.0 220 / 71024.2 2.9 19.4
2016-Nov-27 05:00N 41°36' W 082°42'0 0.0 240 / 131024.5 3.2 19.5
2016-Nov-27 04:00N 41°36' W 082°42'0 0.0 240 / 101024.2 3.6 19.5
2016-Nov-27 03:00N 41°36' W 082°42'0 0.0 240 / 121024.2 4.3 19.6
2016-Nov-27 02:00N 41°36' W 082°42'0 0.0 250 / 101024.5 4.4 19.5
2016-Nov-27 01:00N 41°36' W 082°42'0 0.0 270 / 141024.5 4.7 19.9
2016-Nov-27 00:00N 41°36' W 082°42'0 0.0 240 / 121024.9 4.8 20.0
2016-Nov-26 23:00N 41°36' W 082°42'4 4.5 260 / 141024.9 5.1 19.6
2016-Nov-26 22:00N 41°36' W 082°36'9 9.0 260 / 191024.9 5.4 19.9
2016-Nov-26 21:00N 41°36' W 082°24'9 9.0 260 / 201024.5 5.4 20.1
2016-Nov-26 20:00N 41°36' W 082°12'9 9.0 290 / 221024.2 5.7 20.8
2016-Nov-26 19:00N 41°36' W 082°00'1110.8 300 / 221024.2 5.7 20.6
2016-Nov-26 18:00N 41°30' W 081°48'4 4.5 300 / 251024.2 5.0 20.6
2016-Nov-26 17:00N 41°30' W 081°42'0 0.0 280 / 161025.2 5.1 20.6
2016-Nov-26 16:00N 41°30' W 081°42'0 0.0 240 / 101025.2 5.5 21.7
2016-Nov-26 15:00N 41°30' W 081°42'   320 / 131025.2 4.7 21.7
Track history (hours):
 
Tides and Currents Weather Stations Pressure Air Temp Water Temp Dewpoint Dewpoint Depression Visibility Wind Speed Wind Dir Waves Ship Positions

Dorothy Ann

Owner: THE INTERLAKE STEAMSHIP COMPANY, Middleburg Heights, OH. More information available from US FCC via Universal Licensing System and Coast Guard Vessel Documentation Center.

Last reported at 2016-Dec-06 15:00 UTC. Time now 2016-Dec-06 16:05 UTC.
Position N 41°36' W 082°42'.

Length 215 m; draft 5.9 m.

Type: Cargo ship. MMSI: 367409260.

Wind from 120 at 20 knots

Barometer 1009.0 mb
Air temperature 4.0 ° C
Water temperature 16.8 ° C

Date/timePositionNaut miles runAvg speedWind from/ knotsBaromVisibWave heightAir tempDewpointWater temp
2016-Dec-06 15:00N 41°36' W 082°42'0 0.0 120 / 201009.0 4.0 16.8
2016-Dec-06 14:00N 41°36' W 082°42'0 0.0 120 / 211009.6 4.1 16.5
2016-Dec-06 13:00N 41°36' W 082°42'0 0.0 100 / 251010.7 3.9 16.6
2016-Dec-06 12:00N 41°36' W 082°42'0 0.0 090 / 261011.7 4.4 16.5
2016-Dec-06 11:00N 41°36' W 082°42'0 0.0 090 / 261012.7 3.9 16.5
2016-Dec-06 10:00N 41°36' W 082°42'0 0.0 100 / 221014.0 3.3 16.4
2016-Dec-06 09:00N 41°36' W 082°42'0 0.0 110 / 221015.1 3.5 16.5
2016-Dec-06 08:00N 41°36' W 082°42'7 7.5 110 / 221016.1 3.6 16.5
2016-Dec-06 07:00N 41°30' W 082°36'9 9.0 100 / 181016.8 3.4 17.2
2016-Dec-06 06:00N 41°30' W 082°24'9 9.0 110 / 141017.8 7.3 17.3
2016-Dec-06 05:00N 41°30' W 082°12'0 0.0 110 / 81018.1 1.9 16.9
2016-Dec-06 04:00N 41°30' W 082°12'0 0.0 080 / 31018.5 0.4 17.0
2016-Dec-06 03:00N 41°30' W 082°12'0 0.0 110 / 41018.8 0.4 17.3
2016-Dec-06 02:00N 41°30' W 082°12'0 0.0 110 / 11019.5 0.6 17.0
2016-Dec-06 01:00N 41°30' W 082°12'0 0.0 140 / 21019.5 0.5 17.2
2016-Dec-06 00:00N 41°30' W 082°12'0 0.0 160 / 31019.8 2.0 17.2
2016-Dec-05 23:00N 41°30' W 082°12'0 0.0 260 / 31019.8 3.0 17.0
2016-Dec-05 22:00N 41°30' W 082°12'0 0.0 230 / 41020.1 3.3 17.3
2016-Dec-05 21:00N 41°30' W 082°12'0 0.0 240 / 51019.8 3.6 17.3
2016-Dec-05 20:00N 41°30' W 082°12'0 0.0 210 / 61019.1 3.5 17.3
2016-Dec-05 19:00N 41°30' W 082°12'0 0.0 230 / 71019.5 3.5 17.1
2016-Dec-05 18:00N 41°30' W 082°12'0 0.0 220 / 101019.1 3.3 17.0
2016-Dec-05 17:00N 41°30' W 082°12'0 0.0 220 / 101019.1 3.2 17.3
2016-Dec-05 16:00N 41°30' W 082°12'0 0.0 230 / 81019.5 3.0 17.1
2016-Dec-05 15:00N 41°30' W 082°12'0 0.0 250 / 41019.1 2.9 17.0
2016-Dec-05 14:00N 41°30' W 082°12'0 0.0 250 / 91018.8 2.7 17.0
2016-Dec-05 13:00N 41°30' W 082°12'0 0.0 250 / 71018.1 2.8 17.0
2016-Dec-05 12:00N 41°30' W 082°12'4 4.5 260 / 101017.1 3.0 16.9
2016-Dec-05 11:00N 41°30' W 082°18'9 9.0 290 / 201016.1 3.3 17.6
2016-Dec-05 10:00N 41°30' W 082°30'9 9.0 250 / 181015.4 3.0 17.2
2016-Dec-05 09:00N 41°30' W 082°42'0 0.0 280 / 241014.7 2.6 16.2
2016-Dec-05 08:00N 41°30' W 082°42'0 0.0 270 / 181013.4 2.5 16.1
2016-Dec-05 07:00N 41°30' W 082°42'0 0.0 270 / 171012.4 2.8 16.0
2016-Dec-05 06:00N 41°30' W 082°42'0 0.0 240 / 161011.0 2.8 16.2
2016-Dec-05 05:00N 41°30' W 082°42'0 0.0 220 / 131010.7 2.1 16.1
2016-Dec-05 04:00N 41°30' W 082°42'0 0.0 210 / 91010.3 1.7 16.2
2016-Dec-05 03:00N 41°30' W 082°42'0 0.0 170 / 91011.0 1.3 16.5
2016-Dec-05 02:00N 41°30' W 082°42'0 0.0 160 / 101011.0 1.0 16.5
2016-Dec-05 01:00N 41°30' W 082°42'0 0.0 140 / 111012.7 2.1 16.4
2016-Dec-05 00:00N 41°30' W 082°42'0 0.0 140 / 161013.4 3.0 16.6
2016-Dec-04 23:00N 41°30' W 082°42'0 0.0 120 / 121015.4 4.6 16.3
2016-Dec-04 22:00N 41°30' W 082°42'0 0.0 130 / 111016.4 4.3 16.4
2016-Dec-04 21:00N 41°30' W 082°42'0 0.0 120 / 121016.8 4.1 16.5
2016-Dec-04 20:00N 41°30' W 082°42'0 0.0 120 / 111017.4 4.0 16.5
2016-Dec-04 19:00N 41°30' W 082°42'0 0.0 110 / 111018.8 3.6 16.7
2016-Dec-04 18:00N 41°30' W 082°42'0 0.0 130 / 81020.5 3.6 16.3
2016-Dec-04 17:00N 41°30' W 082°42'7 7.5 150 / 71021.8 3.0 16.2
2016-Dec-04 16:00N 41°36' W 082°36'7 7.5 180 / 101023.2 3.1 16.6
2016-Dec-04 15:00N 41°42' W 082°30'32 8.1 190 / 101023.9 3.1 16.9
2016-Dec-04 11:00N 42°00' W 083°06'6 6.0 200 / 141024.2 3.0 16.7
2016-Dec-04 10:00N 42°06' W 083°06'1212.0 250 / 71025.0 2.6 16.8
2016-Dec-04 09:00N 42°18' W 083°06'0 0.0 230 / 71025.0 2.6 16.6
2016-Dec-04 08:00N 42°18' W 083°06'0 0.0 250 / 41025.3 3.1 16.7
2016-Dec-04 07:00N 42°18' W 083°06'0 0.0 230 / 41025.3 2.6 20.4
2016-Dec-04 06:00N 42°18' W 083°06'0 0.0 240 / 41025.7 2.4 20.1
2016-Dec-04 05:00N 42°18' W 083°06'0 0.0 210 / 41026.0 2.5 19.9
2016-Dec-04 04:00N 42°18' W 083°06'0 0.0 250 / 51026.4 2.6 20.6
2016-Dec-04 03:00N 42°18' W 083°06'0 0.0 250 / 41026.0 3.8 19.5
2016-Dec-04 02:00N 42°18' W 083°06'1110.7 260 / 71026.0 3.4 16.3
2016-Dec-04 01:00N 42°24' W 082°54'1110.7 280 / 101025.7 3.3 16.6
2016-Dec-04 00:00N 42°30' W 082°42'7 7.5 270 / 121025.7 3.4 17.0
2016-Dec-03 23:00N 42°36' W 082°36'7 7.4 280 / 81026.0 3.8 17.4
2016-Dec-03 22:00N 42°42' W 082°30'1212.0 280 / 81025.9 3.7 17.6
2016-Dec-03 21:00N 42°54' W 082°30'7 7.4 270 / 91025.5 3.8 17.3
2016-Dec-03 20:00N 43°00' W 082°24'1212.0 270 / 171025.5 3.9 17.7
2016-Dec-03 19:00N 43°12' W 082°24'6 6.0 290 / 171024.5 3.8 17.8
2016-Dec-03 18:00N 43°18' W 082°24'1312.8 280 / 161023.8 3.7 18.2
2016-Dec-03 17:00N 43°30' W 082°30'6 6.0 280 / 171023.8 3.5 17.9
2016-Dec-03 16:00N 43°36' W 082°30'1212.0 280 / 181024.8 3.6 18.1
2016-Dec-03 15:00N 43°48' W 082°30'6 6.0 280 / 171024.5 3.9 17.6
2016-Dec-03 14:00N 43°54' W 082°30'1110.5 280 / 141023.8 3.9 17.4
2016-Dec-03 13:00N 44°00' W 082°42'7 7.4 310 / 151023.8 9.3 17.4
2016-Dec-03 12:00N 44°06' W 082°48'1010.5 300 / 141023.5 9.7 17.2
2016-Dec-03 11:00N 44°12' W 083°00'1010.5 310 / 151023.5 7.8 17.9
2016-Dec-03 10:00N 44°18' W 083°12'6 6.0 320 / 131023.2 8.6 17.7
2016-Dec-03 09:00N 44°24' W 083°12'1212.0 300 / 161022.8 3.8 17.2
2016-Dec-03 08:00N 44°36' W 083°12'6 6.0 300 / 161022.5 4.0 17.5
2016-Dec-03 07:00N 44°42' W 083°12'7 7.4 310 / 171021.8 3.4 18.0
2016-Dec-03 06:00N 44°48' W 083°06'1212.0 310 / 221021.5 3.4 17.4
2016-Dec-03 05:00N 45°00' W 083°06'7 7.3 310 / 201020.8 3.5 16.6
2016-Dec-03 04:00N 45°06' W 083°12'1312.7 290 / 221020.8 4.3 16.9
2016-Dec-03 03:00N 45°18' W 083°18'4 4.2 320 / 261020.4 4.0 16.7
2016-Dec-03 02:00N 45°18' W 083°24'0 0.0 300 / 201019.8 3.8 16.2
2016-Dec-03 01:00N 45°18' W 083°24'0 0.0 310 / 191019.1 3.7 16.7
2016-Dec-03 00:00N 45°18' W 083°24'0 0.0 310 / 221018.4 3.9 16.8
2016-Dec-02 23:00N 45°18' W 083°24'0 0.0 320 / 241017.7 4.1 16.7
2016-Dec-02 22:00N 45°18' W 083°24'0 0.0 310 / 231017.1 4.0 17.1
2016-Dec-02 21:00N 45°18' W 083°24'0 0.0 320 / 251016.4 3.9 17.2
2016-Dec-02 20:00N 45°18' W 083°24'0 0.0 300 / 191015.7 3.9 17.3
2016-Dec-02 19:00N 45°18' W 083°24'0 0.0 310 / 191014.7 3.7 17.4
2016-Dec-02 18:00N 45°18' W 083°24'0 0.0 300 / 211014.0 3.3 17.1
2016-Dec-02 17:00N 45°18' W 083°24'0 0.0 280 / 151013.7 2.1 17.0
2016-Dec-02 16:00N 45°18' W 083°24'0 0.0 290 / 171013.3 2.2 17.0
2016-Dec-02 15:00N 45°18' W 083°24'0 0.0 280 / 151012.7 1.4 16.6
2016-Dec-02 14:00N 45°18' W 083°24'0 0.0 360 / 31012.3 1.2 16.9
2016-Dec-02 13:00N 45°18' W 083°24'0 0.0 290 / 181011.6 1.6 16.4
2016-Dec-02 12:00N 45°18' W 083°24'0 0.0 280 / 171011.0 1.7 16.4
2016-Dec-02 11:00N 45°18' W 083°24'0 0.0 290 / 191011.0 1.9 16.5
2016-Dec-02 10:00N 45°18' W 083°24'0 0.0 290 / 171010.3 1.9 17.1
2016-Dec-02 09:00N 45°18' W 083°24'0 0.0 290 / 151009.6 1.8 17.0
2016-Dec-02 08:00N 45°18' W 083°24'4 4.2 280 / 161009.6 1.7 16.5
2016-Dec-02 07:00N 45°18' W 083°18'7 7.3 300 / 271008.3 2.2 16.2
2016-Dec-02 06:00N 45°12' W 083°12'1312.7 290 / 281007.6 2.6 16.7
2016-Dec-02 05:00N 45°00' W 083°06'6 6.0 290 / 261007.2 3.3 17.3
2016-Dec-02 04:00N 44°54' W 083°06'1212.0 290 / 301006.9 3.7 17.4
2016-Dec-02 03:00N 44°42' W 083°06'7 7.4 300 / 221006.9 4.4 17.8
2016-Dec-02 02:00N 44°36' W 083°12'1212.0 290 / 241006.9 4.4 17.7
2016-Dec-02 01:00N 44°24' W 083°12'7 7.4 290 / 241006.2 4.6 17.2
2016-Dec-02 00:00N 44°18' W 083°18'7 7.4 280 / 221006.6 4.5 17.5
2016-Dec-01 23:00N 44°12' W 083°24'1312.8 280 / 201006.2 4.9 17.6
2016-Dec-01 22:00N 44°00' W 083°30'7 7.4 270 / 211005.5 5.8 16.8
2016-Dec-01 21:00N 43°54' W 083°36'7 7.4 250 / 221005.5 5.8 15.9
2016-Dec-01 20:00N 43°48' W 083°42'1312.8 250 / 201005.5 5.7 15.9
2016-Dec-01 19:00N 43°36' W 083°48'0 0.0 250 / 121005.5 5.5 15.8
2016-Dec-01 18:00N 43°36' W 083°48'0 0.0 250 / 151005.2 4.8 15.6
2016-Dec-01 17:00N 43°36' W 083°48'0 0.0 240 / 131004.9 4.2 15.3
2016-Dec-01 16:00N 43°36' W 083°48'0 0.0 250 / 121004.9 3.7 15.5
2016-Dec-01 15:00N 43°36' W 083°48'0 0.0 240 / 151004.5 3.0 15.5
2016-Dec-01 14:00N 43°36' W 083°48'0 0.0 230 / 141004.2 2.9 15.6
2016-Dec-01 13:00N 43°36' W 083°48'0 0.0 230 / 111003.9 2.7 15.4
2016-Dec-01 12:00N 43°36' W 083°48'0 0.0 220 / 171003.9 2.7 15.5
2016-Dec-01 11:00N 43°36' W 083°48'1212.0 230 / 141002.8 2.6 15.3
2016-Dec-01 10:00N 43°48' W 083°48'7 7.4 240 / 241002.2 3.6 15.4
2016-Dec-01 09:00N 43°54' W 083°42'7 7.4 220 / 351001.8 4.4 15.5
2016-Dec-01 08:00N 44°00' W 083°36'7 7.4 250 / 251001.8 4.5 14.7
2016-Dec-01 07:00N 44°06' W 083°30'7 7.4 250 / 181001.1 4.4 17.0
2016-Dec-01 06:00N 44°12' W 083°24'1010.5 260 / 221000.5 5.7 18.0
2016-Dec-01 05:00N 44°18' W 083°12'6 6.0 270 / 24999.4 5.2 18.1
2016-Dec-01 04:00N 44°24' W 083°12'1212.0 260 / 23998.8 6.1 17.5
2016-Dec-01 03:00N 44°36' W 083°12'7 7.4 300 / 16998.4 6.6 18.4
2016-Dec-01 02:00N 44°42' W 083°06'1212.0 310 / 25998.1 6.9 18.4
2016-Dec-01 01:00N 44°54' W 083°06'6 6.0 280 / 18997.8 8.5 18.2
2016-Dec-01 00:00N 45°00' W 083°06'1312.7 180 / 10998.1 8.1 18.0
2016-Nov-30 23:00N 45°12' W 083°12'7 7.3 190 / 11998.1 8.2 18.3
2016-Nov-30 22:00N 45°18' W 083°18'7 7.3 080 / 2998.4 9.0 17.8
2016-Nov-30 21:00N 45°24' W 083°24'8 8.4 060 / 7998.4 7.7 18.2
2016-Nov-30 20:00N 45°24' W 083°36'8 8.4 090 / 4998.4 8.5 18.1
2016-Nov-30 19:00N 45°24' W 083°48'0 0.0 280 / 4998.8 10.4 17.7
2016-Nov-30 18:00N 45°24' W 083°48'0 0.0 060 / 2999.1 9.7 17.5
2016-Nov-30 17:00N 45°24' W 083°48'0 0.0 140 / 4999.8 10.4 17.8
2016-Nov-30 16:00N 45°24' W 083°48'0 0.0 180 / 41000.8 10.3 17.9
2016-Nov-30 15:00N 45°24' W 083°48'0 0.0 160 / 101001.5 9.1 17.6
2016-Nov-30 14:00N 45°24' W 083°48'0 0.0 180 / 101001.8 7.9 17.5
2016-Nov-30 13:00N 45°24' W 083°48'0 0.0 180 / 61002.2 7.9 17.4
2016-Nov-30 12:00N 45°24' W 083°48'0 0.0 190 / 61002.2 7.2 17.2
2016-Nov-30 11:00N 45°24' W 083°48'0 0.0 170 / 61002.2 7.2 17.2
2016-Nov-30 10:00N 45°24' W 083°48'0 0.0 170 / 71002.8 6.9 17.3
2016-Nov-30 09:00N 45°24' W 083°48'0 0.0 170 / 81002.8 6.0 17.1
2016-Nov-30 08:00N 45°24' W 083°48'0 0.0 180 / 101003.2 6.0 17.1
2016-Nov-30 07:00N 45°24' W 083°48'8 8.4 180 / 101003.2 6.3 16.8
2016-Nov-30 06:00N 45°24' W 083°36'1010.3 180 / 121003.2 7.3 16.9
2016-Nov-30 05:00N 45°18' W 083°24'1010.4 180 / 141003.9 8.3 16.8
2016-Nov-30 04:00N 45°12' W 083°12'7 7.3 190 / 161004.2 8.7 16.5
2016-Nov-30 03:00N 45°06' W 083°06'1312.7 180 / 191004.5 10.3 17.3
2016-Nov-30 02:00N 44°54' W 083°00'6 6.0 180 / 181004.9 12.7 16.8
2016-Nov-30 01:00N 44°48' W 083°00'1312.7 170 / 171004.9 12.4 16.8
2016-Nov-30 00:00N 44°36' W 082°54'7 7.4 160 / 151004.9 10.3 17.5
2016-Nov-29 23:00N 44°30' W 082°48'3110.4 160 / 141004.5 10.5 17.3
2016-Nov-29 20:00N 44°00' W 082°36'1312.8 180 / 131003.2 11.3 17.4
2016-Nov-29 19:00N 43°48' W 082°30'6 6.0 200 / 131002.8 11.5 17.8
2016-Nov-29 18:00N 43°42' W 082°30'1212.0 210 / 181002.8 11.7 18.0
2016-Nov-29 17:00N 43°30' W 082°30'1212.0 220 / 201003.2 12.1 18.3
2016-Nov-29 16:00N 43°18' W 082°30'7 7.4 230 / 211002.8 11.4 18.7
2016-Nov-29 15:00N 43°12' W 082°24'1212.0 220 / 211002.8 10.8 19.0
2016-Nov-29 14:00N 43°00' W 082°24'7 7.4 200 / 141002.8 10.7 18.1
2016-Nov-29 13:00N 42°54' W 082°30'0 0.0 200 / 171002.2 10.8 18.7
2016-Nov-29 12:00N 42°54' W 082°30'0 0.0 200 / 171000.8 10.9 18.7
2016-Nov-29 11:00N 42°54' W 082°30'0 0.0 200 / 15999.4 10.9 19.0
2016-Nov-29 10:00N 42°54' W 082°30'0 0.0 210 / 17998.8 10.6 18.8
2016-Nov-29 09:00N 42°54' W 082°30'0 0.0 200 / 26998.4 10.2 18.8
2016-Nov-29 08:00N 42°54' W 082°30'0 0.0 270 / 22998.1 8.8 19.0
2016-Nov-29 07:00N 42°54' W 082°30'0 0.0 180 / 21997.1 9.4 19.6
2016-Nov-29 06:00N 42°54' W 082°30'0 0.0 140 / 22997.8 7.7 20.2
2016-Nov-29 05:00N 42°54' W 082°30'0 0.0 160 / 22998.4 8.0 19.6
2016-Nov-29 04:00N 42°54' W 082°30'0 0.0 140 / 22999.8 7.9 19.9
2016-Nov-29 03:00N 42°54' W 082°30'0 0.0 140 / 221001.5 8.5 20.2
2016-Nov-29 02:00N 42°54' W 082°30'0 0.0 150 / 221002.8 8.8 19.9
2016-Nov-29 01:00N 42°54' W 082°30'6 6.0 140 / 231004.2 8.8 20.2
2016-Nov-29 00:00N 42°48' W 082°30'6 6.0 140 / 141005.5 8.2 20.1
2016-Nov-28 23:00N 42°42' W 082°30'0 0.0 130 / 141006.9 7.7 19.9
2016-Nov-28 22:00N 42°42' W 082°30'0 0.0 140 / 131007.2 7.4 20.1
2016-Nov-28 21:00N 42°42' W 082°30'0 0.0 160 / 151007.9 7.0 19.9
2016-Nov-28 20:00N 42°42' W 082°30'0 0.0 150 / 151007.9 8.4 20.5
2016-Nov-28 19:00N 42°42' W 082°30'7 7.4 150 / 121008.6 8.7 19.7
2016-Nov-28 18:00N 42°36' W 082°36'7 7.5 150 / 161009.6 8.1 19.4
2016-Nov-28 17:00N 42°30' W 082°42'7 7.5 160 / 181009.4 7.6 18.9
2016-Nov-28 16:00N 42°24' W 082°48'4 4.4 180 / 161011.1 7.7 18.5
2016-Nov-28 15:00N 42°24' W 082°54'1110.7 180 / 141011.1 7.9 18.3
2016-Nov-28 14:00N 42°18' W 083°06'0 0.0 180 / 101012.1 6.8 17.4
2016-Nov-28 13:00N 42°18' W 083°06'0 0.0 180 / 71012.5 6.2 17.0
2016-Nov-28 12:00N 42°18' W 083°06'0 0.0 140 / 51012.1 5.6 17.3
2016-Nov-28 11:00N 42°18' W 083°06'0 0.0 150 / 61012.5 4.9 17.1
2016-Nov-28 10:00N 42°18' W 083°06'0 0.0 150 / 61012.8 3.9 16.7
2016-Nov-28 09:00N 42°18' W 083°06'0 0.0 150 / 51013.5 3.7 17.7
2016-Nov-28 08:00N 42°18' W 083°06'6 6.0 150 / 51013.8 3.7 18.1
2016-Nov-28 07:00N 42°12' W 083°06'6 6.0 150 / 101014.5 4.4 18.1
2016-Nov-28 06:00N 42°06' W 083°06'6 6.0 160 / 81015.5 6.8 18.6
2016-Nov-28 05:00N 42°00' W 083°06'7 7.5 180 / 151015.7 10.1 18.3
2016-Nov-28 04:00N 41°54' W 083°00'9 8.9 180 / 151015.7 6.1 18.3
2016-Nov-28 03:00N 41°54' W 082°48'4 4.5 170 / 121017.1 6.6 19.9
2016-Nov-28 02:00N 41°54' W 082°42'1110.8 160 / 111017.8 6.9 19.5
2016-Nov-28 01:00N 41°48' W 082°30'7 7.5 170 / 91018.5 7.6 19.6
2016-Nov-28 00:00N 41°42' W 082°36'7 7.5 170 / 111018.5 7.3 19.6
2016-Nov-27 23:00N 41°36' W 082°42'6 6.0 190 / 121018.8 7.0 19.5
2016-Nov-27 22:00N 41°30' W 082°42'0 0.0 180 / 51019.1 7.2 19.1
2016-Nov-27 21:00N 41°30' W 082°42'0 0.0 190 / 81019.1 7.9 19.2
2016-Nov-27 20:00N 41°30' W 082°42'0 0.0 190 / 121019.5 8.2 19.2
2016-Nov-27 19:00N 41°30' W 082°42'0 0.0 220 / 91019.8 8.2 19.1
2016-Nov-27 18:00N 41°30' W 082°42'0 0.0 210 / 131020.8 6.9 19.2
2016-Nov-27 17:00N 41°30' W 082°42'0 0.0 210 / 111022.2 6.7 18.9
2016-Nov-27 16:00N 41°30' W 082°42'0 0.0 210 / 141022.9 4.9 19.0
2016-Nov-27 15:00N 41°30' W 082°42'0 0.0 200 / 101023.2 4.0 18.6
2016-Nov-27 14:00N 41°30' W 082°42'0 0.0 210 / 101023.2 2.5 18.6
2016-Nov-27 13:00N 41°30' W 082°42'0 0.0 200 / 121023.2 1.7 18.6
2016-Nov-27 12:00N 41°30' W 082°42'0 0.0 200 / 111022.5 1.6 18.7
2016-Nov-27 11:00N 41°30' W 082°42'0 0.0 200 / 101022.9 1.9 18.7
2016-Nov-27 10:00N 41°30' W 082°42'0 0.0 200 / 91023.2 2.4 18.8
2016-Nov-27 09:00N 41°30' W 082°42'6 6.0 210 / 101023.5 3.5 19.3
2016-Nov-27 08:00N 41°36' W 082°42'0 0.0 230 / 121024.2 3.3 19.5
2016-Nov-27 07:00N 41°36' W 082°42'0 0.0 230 / 121024.2 3.2 19.4
2016-Nov-27 06:00N 41°36' W 082°42'0 0.0 220 / 71024.2 2.9 19.4
2016-Nov-27 05:00N 41°36' W 082°42'0 0.0 240 / 131024.5 3.2 19.5
2016-Nov-27 04:00N 41°36' W 082°42'0 0.0 240 / 101024.2 3.6 19.5
2016-Nov-27 03:00N 41°36' W 082°42'0 0.0 240 / 121024.2 4.3 19.6
2016-Nov-27 02:00N 41°36' W 082°42'0 0.0 250 / 101024.5 4.4 19.5
2016-Nov-27 01:00N 41°36' W 082°42'0 0.0 270 / 141024.5 4.7 19.9
2016-Nov-27 00:00N 41°36' W 082°42'0 0.0 240 / 121024.9 4.8 20.0
2016-Nov-26 23:00N 41°36' W 082°42'4 4.5 260 / 141024.9 5.1 19.6
2016-Nov-26 22:00N 41°36' W 082°36'9 9.0 260 / 191024.9 5.4 19.9
2016-Nov-26 21:00N 41°36' W 082°24'9 9.0 260 / 201024.5 5.4 20.1
2016-Nov-26 20:00N 41°36' W 082°12'9 9.0 290 / 221024.2 5.7 20.8
2016-Nov-26 19:00N 41°36' W 082°00'1110.8 300 / 221024.2 5.7 20.6
2016-Nov-26 18:00N 41°30' W 081°48'4 4.5 300 / 251024.2 5.0 20.6
2016-Nov-26 17:00N 41°30' W 081°42'0 0.0 280 / 161025.2 5.1 20.6
2016-Nov-26 16:00N 41°30' W 081°42'0 0.0 240 / 101025.2 5.5 21.7
2016-Nov-26 15:00N 41°30' W 081°42'   320 / 131025.2 4.7 21.7

Dump ship's entire track history